Time;durP1;ratioP1;P1;durP2;ratioP2;P2;SDS_P1;SDS_P2;PMS_P1;PMS_P2;Temp;Humidity;BMP_temperature;BMP_pressure;BME280_temperature;BME280_humidity;BME280_pressure;Samples;Min_cycle;Max_cycle;Signal;HPM_P1;HPM_P2
2022/06/22 00:00:01;;;;;;;7.75;3.80;;;;;;;15.03;66.96;100729.44;7396657;19;20027;-70
2022/06/22 00:02:34;;;;;;;4.78;3.53;;;;;;;15.00;66.71;100740.16;7399512;19;20090;-70
2022/06/22 00:05:06;;;;;;;7.85;4.50;;;;;;;14.96;67.05;100741.16;7397014;19;20082;-70
2022/06/22 00:07:38;;;;;;;5.40;3.72;;;;;;;14.93;66.96;100741.31;7396998;19;20027;-70
2022/06/22 00:10:15;;;;;;;5.50;4.25;;;;;;;14.88;67.16;100741.47;7401793;19;20015;-70
2022/06/22 00:12:44;;;;;;;5.85;3.42;;;;;;;14.82;67.32;100747.88;7400226;19;20011;-70
2022/06/22 00:15:29;;;;;;;5.95;4.72;;;;;;;14.76;67.57;100749.88;7397863;19;20014;-70
2022/06/22 00:17:57;;;;;;;4.55;3.33;;;;;;;14.69;67.45;100754.56;7397867;19;20023;-71
2022/06/22 00:20:29;;;;;;;5.35;3.88;;;;;;;14.63;67.58;100758.28;7400355;19;20041;-71
2022/06/22 00:23:01;;;;;;;7.45;4.22;;;;;;;14.57;67.36;100757.63;7397145;19;20023;-71
2022/06/22 00:25:38;;;;;;;12.15;3.97;;;;;;;14.50;67.64;100767.56;7396868;19;20019;-71
2022/06/22 00:28:38;;;;;;;5.95;4.28;;;;;;;14.42;67.49;100759.94;7397333;19;20014;-71
2022/06/22 00:31:17;;;;;;;5.93;3.70;;;;;;;14.36;67.44;100757.53;7393899;19;20091;-71
2022/06/22 00:34:04;;;;;;;4.15;3.75;;;;;;;14.32;67.39;100753.28;7396316;19;20041;-71
2022/06/22 00:36:39;;;;;;;7.15;4.35;;;;;;;14.28;67.69;100754.31;7396453;19;20485;-71
2022/06/22 00:39:17;;;;;;;5.60;3.80;;;;;;;14.24;67.70;100756.22;7398400;19;20015;-71
2022/06/22 00:41:49;;;;;;;4.47;3.70;;;;;;;14.22;67.96;100750.13;7394532;19;20041;-70
2022/06/22 00:44:19;;;;;;;5.15;4.25;;;;;;;14.17;67.68;100752.91;7397096;19;20035;-71
2022/06/22 00:47:01;;;;;;;7.30;4.00;;;;;;;14.14;68.15;100755.69;7396148;19;20014;-70
2022/06/22 00:49:31;;;;;;;9.10;4.20;;;;;;;14.10;68.09;100743.53;7396633;19;20027;-71
2022/06/22 00:52:03;;;;;;;5.60;3.92;;;;;;;14.06;68.20;100741.91;7396117;19;20477;-71
2022/06/22 00:54:35;;;;;;;4.97;3.60;;;;;;;14.02;68.61;100738.50;7396879;19;20102;-71
2022/06/22 00:57:15;;;;;;;4.40;4.00;;;;;;;13.97;68.63;100729.91;7396565;19;20015;-71
2022/06/22 00:59:51;;;;;;;8.48;4.10;;;;;;;13.94;68.72;100742.34;7398390;19;20035;-71
2022/06/22 01:02:37;;;;;;;5.68;4.35;;;;;;;13.91;68.79;100730.13;7396273;19;20039;-71
2022/06/22 01:05:18;;;;;;;5.78;4.95;;;;;;;13.87;69.05;100728.50;7398305;19;20022;-71
2022/06/22 01:07:53;;;;;;;5.45;4.25;;;;;;;13.83;69.03;100730.41;7395903;19;20007;-69
2022/06/22 01:10:27;;;;;;;5.43;3.95;;;;;;;13.80;69.01;100725.25;7397015;19;20011;-69
2022/06/22 01:13:03;;;;;;;4.68;4.22;;;;;;;13.77;69.40;100722.69;7391014;19;20454;-67
2022/06/22 01:15:36;;;;;;;7.22;4.20;;;;;;;13.73;69.54;100712.34;7396701;19;20022;-68
2022/06/22 01:18:20;;;;;;;6.43;4.13;;;;;;;13.70;69.56;100715.94;7396806;19;20031;-68
2022/06/22 01:20:58;;;;;;;8.13;4.47;;;;;;;13.62;69.60;100708.31;7397043;19;20018;-69
2022/06/22 01:24:01;;;;;;;5.40;4.38;;;;;;;13.64;69.82;100711.72;7395214;19;20602;-67
2022/06/22 01:26:52;;;;;;;5.22;4.72;;;;;;;13.60;70.09;100710.13;7397746;19;20081;-68
2022/06/22 01:29:26;;;;;;;7.22;5.10;;;;;;;13.57;70.01;100706.72;7396075;19;20018;-68
2022/06/22 01:32:01;;;;;;;8.38;5.07;;;;;;;13.53;70.30;100700.69;7396152;19;20025;-68
2022/06/22 01:34:36;;;;;;;5.50;5.00;;;;;;;13.48;70.44;100697.38;7394630;19;20025;-68
2022/06/22 01:37:07;;;;;;;5.88;5.18;;;;;;;13.46;70.46;100693.94;7395905;19;20428;-68
2022/06/22 01:39:36;;;;;;;5.75;4.43;;;;;;;13.40;70.56;100688.88;7396528;19;20019;-68
2022/06/22 01:42:10;;;;;;;7.47;4.70;;;;;;;13.40;70.91;100696.78;7393870;19;20017;-68
2022/06/22 01:44:48;;;;;;;5.18;4.68;;;;;;;13.36;70.82;100694.22;7394545;19;20039;-68
2022/06/22 01:47:27;;;;;;;7.93;5.57;;;;;;;13.34;70.91;100695.19;7395537;19;20014;-68
2022/06/22 01:50:02;;;;;;;8.15;5.32;;;;;;;13.32;71.04;100697.00;7395511;19;20007;-68
2022/06/22 01:52:49;;;;;;;6.93;5.03;;;;;;;13.31;71.30;100685.59;7394046;19;20019;-69
2022/06/22 01:55:28;;;;;;;8.27;5.15;;;;;;;13.30;71.27;100683.03;7396132;19;20011;-68
2022/06/22 01:58:06;;;;;;;9.32;5.97;;;;;;;13.29;71.18;100691.84;7393510;19;20485;-70
2022/06/22 02:00:37;;;;;;;5.85;4.93;;;;;;;13.28;71.37;100690.09;7393539;19;20007;-68
2022/06/22 02:03:16;;;;;;;7.93;4.97;;;;;;;13.28;71.85;100687.47;7395286;19;20011;-68
2022/06/22 02:05:52;;;;;;;6.03;4.95;;;;;;;13.26;71.72;100692.81;7395751;19;20070;-68
2022/06/22 02:08:25;;;;;;;6.22;4.90;;;;;;;13.27;71.80;100696.28;7395402;19;20022;-68
2022/06/22 02:10:59;;;;;;;6.40;5.45;;;;;;;13.25;71.83;100696.34;7394883;19;20011;-68
2022/06/22 02:13:36;;;;;;;6.00;4.75;;;;;;;13.24;71.99;100696.41;7392851;19;20018;-69
2022/06/22 02:16:14;;;;;;;9.15;5.03;;;;;;;13.24;72.02;100696.41;7394271;19;20023;-69
2022/06/22 02:18:48;;;;;;;7.53;5.30;;;;;;;13.23;72.06;100692.03;7396181;19;20371;-69
2022/06/22 02:21:23;;;;;;;7.22;5.07;;;;;;;13.22;72.24;100691.19;7396492;19;20044;-70
2022/06/22 02:23:57;;;;;;;5.72;4.30;;;;;;;13.20;72.18;100703.53;7393393;19;20031;-70
2022/06/22 02:26:34;;;;;;;5.45;4.05;;;;;;;13.14;72.46;100699.34;7395009;19;20067;-69
2022/06/22 02:29:03;;;;;;;6.93;4.45;;;;;;;13.04;72.58;100708.44;7395143;19;20010;-68
2022/06/22 02:31:35;;;;;;;4.60;4.20;;;;;;;12.98;72.72;100709.53;7394566;19;20019;-68
2022/06/22 02:34:04;;;;;;;4.63;4.20;;;;;;;12.91;72.61;100709.78;7392187;19;20039;-69
2022/06/22 02:36:38;;;;;;;4.78;4.38;;;;;;;12.85;72.71;100711.69;7391894;19;20018;-68
2022/06/22 02:39:09;;;;;;;8.48;4.47;;;;;;;12.79;72.93;100701.34;7394321;19;20035;-69
2022/06/22 02:44:34;;;;;;;5.60;4.70;;;;;;;12.70;72.99;100701.63;7392788;19;20384;-69
2022/06/22 02:47:22;;;;;;;6.35;4.68;;;;;;;12.65;73.32;100707.06;7394069;19;20019;-69
2022/06/22 02:49:56;;;;;;;6.25;4.60;;;;;;;12.61;73.30;100702.78;7393804;19;20014;-69
2022/06/22 02:52:29;;;;;;;4.93;4.45;;;;;;;12.60;73.36;100698.44;7394034;19;20018;-69
2022/06/22 02:55:01;;;;;;;5.10;4.43;;;;;;;12.60;73.46;100687.03;7394458;19;20018;-69
2022/06/22 02:57:37;;;;;;;5.57;4.95;;;;;;;12.59;73.54;100693.22;7394324;19;20018;-69
2022/06/22 03:00:08;;;;;;;6.72;4.65;;;;;;;12.58;73.53;100691.50;7394358;19;20015;-69
2022/06/22 03:02:41;;;;;;;5.55;5.05;;;;;;;12.57;73.75;100692.41;7392164;19;20011;-70
2022/06/22 03:05:10;;;;;;;5.30;4.88;;;;;;;12.55;73.59;100693.31;7395593;19;20022;-69
2022/06/22 03:07:42;;;;;;;6.72;5.60;;;;;;;12.54;73.74;100693.34;7401043;19;20022;-69
2022/06/22 03:10:20;;;;;;;6.93;6.28;;;;;;;12.52;73.98;100685.53;7400713;19;20015;-69
2022/06/22 03:12:49;;;;;;;6.80;5.95;;;;;;;12.53;73.76;100683.75;7399298;19;20018;-69
2022/06/22 03:15:22;;;;;;;7.18;6.45;;;;;;;12.52;73.97;100675.00;7398113;19;20011;-69
2022/06/22 03:17:53;;;;;;;6.30;5.80;;;;;;;12.52;73.98;100661.84;7397703;19;20014;-69
2022/06/22 03:20:26;;;;;;;6.93;5.80;;;;;;;12.52;74.13;100664.47;7398175;19;20364;-69
2022/06/22 03:22:59;;;;;;;9.50;6.15;;;;;;;12.50;74.14;100663.63;7397750;19;20074;-70
2022/06/22 03:25:33;;;;;;;8.75;6.25;;;;;;;12.50;74.22;100665.44;7400972;19;20035;-69
2022/06/22 03:28:05;;;;;;;5.75;5.25;;;;;;;12.49;74.22;100664.53;7400769;19;20019;-69
2022/06/22 03:30:48;;;;;;;9.55;6.50;;;;;;;12.49;74.26;100661.91;7400377;19;20022;-69
2022/06/22 03:33:29;;;;;;;6.47;5.87;;;;;;;12.50;74.49;100654.91;7398756;19;20019;-69
2022/06/22 03:36:03;;;;;;;6.82;6.22;;;;;;;12.51;74.47;100652.22;7399344;19;20468;-69
2022/06/22 03:38:36;;;;;;;7.55;6.70;;;;;;;12.51;74.54;100657.47;7399745;19;20031;-69
2022/06/22 03:41:09;;;;;;;10.68;6.63;;;;;;;12.52;74.50;100656.56;7400140;19;20027;-69
2022/06/22 03:43:43;;;;;;;8.82;6.75;;;;;;;12.53;74.58;100650.38;7397741;19;20471;-69
2022/06/22 03:46:16;;;;;;;8.20;6.40;;;;;;;12.54;74.52;100649.47;7399962;19;20018;-69
2022/06/22 03:48:53;;;;;;;8.18;6.15;;;;;;;12.56;74.55;100654.69;7399963;19;20406;-68
2022/06/22 03:51:27;;;;;;;12.93;6.18;;;;;;;12.58;74.39;100652.88;7396837;19;20379;-68
2022/06/22 03:54:03;;;;;;;7.28;6.40;;;;;;;12.57;74.55;100658.19;7396774;19;20028;-69
2022/06/22 03:56:34;;;;;;;6.90;5.53;;;;;;;12.62;74.47;100667.66;7399045;19;20015;-69
2022/06/22 03:59:06;;;;;;;8.15;6.35;;;;;;;12.64;74.54;100657.09;7399352;19;20510;-68
2022/06/22 04:01:34;;;;;;;6.85;6.25;;;;;;;12.66;74.45;100656.13;7399560;19;20032;-69
2022/06/22 04:04:06;;;;;;;7.30;6.57;;;;;;;12.69;74.69;100650.75;7396778;19;20074;-69
2022/06/22 04:06:38;;;;;;;7.38;6.68;;;;;;;12.71;74.73;100650.69;7396579;19;20014;-69
2022/06/22 04:09:13;;;;;;;7.82;7.05;;;;;;;12.74;74.94;100652.38;7397861;19;20010;-69
2022/06/22 04:11:48;;;;;;;7.05;6.35;;;;;;;12.77;74.65;100653.13;7398887;19;20078;-69
2022/06/22 04:14:20;;;;;;;6.97;6.18;;;;;;;12.79;74.48;100651.34;7395167;19;20006;-69
2022/06/22 04:16:52;;;;;;;6.25;5.63;;;;;;;12.81;74.22;100652.13;7396646;19;20022;-69
2022/06/22 04:19:27;;;;;;;7.05;6.35;;;;;;;12.84;73.95;100648.56;7398531;19;20017;-69
2022/06/22 04:22:02;;;;;;;7.70;6.03;;;;;;;12.86;73.81;100658.13;7398796;19;20014;-69
2022/06/22 04:24:34;;;;;;;8.95;6.38;;;;;;;12.87;73.83;100658.97;7396515;19;20035;-69
2022/06/22 04:27:09;;;;;;;7.93;6.35;;;;;;;12.87;73.52;100654.56;7398288;19;20027;-68
2022/06/22 04:29:42;;;;;;;7.25;5.80;;;;;;;12.93;73.52;100658.78;7398483;19;20018;-69
2022/06/22 04:32:17;;;;;;;7.53;6.30;;;;;;;12.97;73.51;100656.91;7395822;19;20019;-71
2022/06/22 04:34:54;;;;;;;6.97;6.15;;;;;;;13.02;73.61;100666.38;7395218;19;20018;-69
2022/06/22 04:37:29;;;;;;;6.30;5.50;;;;;;;13.07;73.54;100666.22;7396945;19;20429;-69
2022/06/22 04:40:08;;;;;;;7.80;7.00;;;;;;;13.12;73.32;100661.66;7397699;19;20031;-69
2022/06/22 04:42:37;;;;;;;10.90;7.32;;;;;;;13.17;73.28;100665.00;7398059;19;20022;-69
2022/06/22 04:45:08;;;;;;;7.85;6.68;;;;;;;13.22;73.25;100669.25;7397378;19;20069;-68
2022/06/22 04:47:37;;;;;;;8.80;6.63;;;;;;;13.28;73.14;100661.13;7396048;19;20031;-69
2022/06/22 04:50:13;;;;;;;8.45;5.88;;;;;;;13.34;73.23;100660.91;7397276;19;20039;-69
2022/06/22 04:52:44;;;;;;;7.55;6.50;;;;;;;13.38;72.98;100656.44;7395194;19;20021;-69
2022/06/22 04:55:17;;;;;;;9.85;6.22;;;;;;;13.45;72.65;100661.44;7396859;19;20031;-69
2022/06/22 04:57:49;;;;;;;8.88;7.00;;;;;;;13.52;72.72;100662.94;7395899;19;20031;-69
2022/06/22 05:00:22;;;;;;;11.13;6.60;;;;;;;13.59;72.56;100663.59;7396819;19;20080;-69
2022/06/22 05:02:57;;;;;;;11.02;6.40;;;;;;;13.66;72.44;100667.72;7395996;19;20718;-69
2022/06/22 05:05:30;;;;;;;9.48;6.15;;;;;;;13.74;72.05;100670.09;7393447;19;20031;-69
2022/06/22 05:08:04;;;;;;;10.23;5.45;;;;;;;13.83;71.87;100664.47;7394133;19;20526;-69
2022/06/22 05:10:38;;;;;;;;;;;;;;;13.91;71.73;100676.53;7396117;19;20489;-68
2022/06/22 05:13:14;;;;;;;8.95;6.47;;;;;;;13.98;71.62;100678.88;7394744;19;19932;-68
2022/06/22 05:16:22;;;;;;;13.85;6.43;;;;;;;14.09;71.41;100680.25;7392748;19;20050;-69
2022/06/22 05:18:52;;;;;;;7.05;4.53;;;;;;;14.17;71.11;100676.41;7395378;19;20011;-69
2022/06/22 05:21:43;;;;;;;8.23;4.93;;;;;;;14.26;71.39;100682.28;7394413;19;20035;-70
2022/06/22 05:24:23;;;;;;;8.48;4.78;;;;;;;14.35;70.92;100679.25;7394364;19;20058;-68
2022/06/22 05:26:55;;;;;;;7.10;4.45;;;;;;;14.44;70.57;100683.31;7395830;19;20019;-69
2022/06/22 05:29:30;;;;;;;8.48;4.60;;;;;;;14.54;70.18;100686.47;7394027;19;20343;-68
2022/06/22 05:32:02;;;;;;;8.68;3.85;;;;;;;14.62;69.39;100687.91;7395673;19;20363;-69
2022/06/22 05:34:34;;;;;;;6.32;4.32;;;;;;;14.71;68.60;100689.34;7393535;19;20034;-69
2022/06/22 05:37:09;;;;;;;8.35;3.70;;;;;;;14.81;68.03;100688.06;7392935;19;20384;-69
2022/06/22 05:39:39;;;;;;;9.38;4.00;;;;;;;14.92;67.50;100684.13;7395405;19;20014;-69
2022/06/22 05:42:08;;;;;;;7.97;3.85;;;;;;;15.02;67.40;100701.28;7392808;19;20389;-69
2022/06/22 05:44:37;;;;;;;7.32;3.90;;;;;;;15.11;67.08;100700.06;7392671;19;20023;-68
2022/06/22 05:47:07;;;;;;;6.85;3.05;;;;;;;15.22;66.56;100704.91;7394997;19;20077;-68
2022/06/22 05:49:44;;;;;;;7.05;3.33;;;;;;;15.30;66.38;100698.38;7394922;19;20011;-68
2022/06/22 05:52:19;;;;;;;10.25;4.00;;;;;;;15.43;65.97;100690.78;7395718;19;20026;-69
2022/06/22 05:54:55;;;;;;;10.55;3.10;;;;;;;15.53;65.51;100683.31;7392869;19;20423;-68
2022/06/22 05:57:35;;;;;;;8.23;3.90;;;;;;;15.63;64.71;100682.00;7395700;19;20024;-69
2022/06/22 06:00:12;;;;;;;8.38;3.60;;;;;;;15.75;64.58;100685.03;7392787;19;20037;-69
2022/06/22 06:02:48;;;;;;;5.75;3.28;;;;;;;15.86;64.52;100682.78;7393336;19;20035;-68
2022/06/22 06:05:22;;;;;;;4.60;3.25;;;;;;;16.00;64.09;100676.00;7394507;19;20473;-69
2022/06/22 06:07:55;;;;;;;6.78;3.63;;;;;;;16.12;63.69;100673.66;7392516;19;20034;-67
2022/06/22 06:10:33;;;;;;;5.40;3.33;;;;;;;16.26;63.31;100675.69;7394335;19;20027;-68
2022/06/22 06:13:06;;;;;;;5.85;3.50;;;;;;;16.39;62.92;100670.66;7394586;19;20070;-68
2022/06/22 06:15:38;;;;;;;7.38;3.08;;;;;;;16.53;62.63;100677.06;7393283;19;20019;-68
2022/06/22 06:18:09;;;;;;;6.97;2.35;;;;;;;16.67;61.74;100673.75;7392621;19;20254;-68
2022/06/22 06:20:42;;;;;;;3.38;2.17;;;;;;;16.81;61.48;100686.31;7391871;19;20074;-68
2022/06/22 06:23:19;;;;;;;6.22;3.10;;;;;;;16.93;61.11;100691.06;7393108;19;20442;-68
2022/06/22 06:28:39;;;;;;;4.10;2.40;;;;;;;17.15;60.52;100682.91;7394525;19;20007;-68
2022/06/22 06:31:14;;;;;;;5.88;2.17;;;;;;;17.25;60.35;100684.16;7393085;19;20028;-68
2022/06/22 06:33:43;;;;;;;4.55;2.35;;;;;;;17.35;59.56;100695.16;7392479;19;20014;-69
2022/06/22 06:36:19;;;;;;;5.32;2.45;;;;;;;17.46;58.88;100697.25;7390813;19;20529;-68
2022/06/22 06:38:56;;;;;;;4.38;1.65;;;;;;;17.55;57.85;100693.28;7393059;19;20391;-69
2022/06/22 06:41:31;;;;;;;6.97;1.42;;;;;;;17.68;57.57;100701.44;7398755;19;20015;-71
2022/06/22 06:44:04;;;;;;;3.65;1.70;;;;;;;17.81;56.31;100704.34;7398070;19;20018;-71
2022/06/22 06:46:37;;;;;;;7.25;2.20;;;;;;;17.91;56.33;100709.06;7401669;19;20021;-71
2022/06/22 06:49:13;;;;;;;2.88;1.55;;;;;;;18.03;55.83;100720.88;7401761;19;20035;-69
2022/06/22 06:51:50;;;;;;;4.38;1.70;;;;;;;18.16;55.19;100720.19;7401030;19;20509;-70
2022/06/22 06:54:25;;;;;;;5.53;1.42;;;;;;;18.26;54.92;100705.50;7398968;19;20102;-68
2022/06/22 06:56:59;;;;;;;6.40;1.58;;;;;;;18.34;53.95;100705.91;7402155;19;20026;-69
2022/06/22 06:59:30;;;;;;;3.58;1.63;;;;;;;18.46;53.64;100715.00;7401671;19;20015;-69
2022/06/22 07:02:05;;;;;;;6.57;1.80;;;;;;;18.54;53.33;100704.81;7401354;19;20022;-71
2022/06/22 07:04:36;;;;;;;4.13;1.65;;;;;;;18.66;53.47;100707.72;7397844;19;20022;-70
2022/06/22 07:07:14;;;;;;;8.82;2.00;;;;;;;18.75;52.65;100701.03;7400701;19;20018;-70
2022/06/22 07:09:48;;;;;;;6.18;1.98;;;;;;;18.85;52.51;100705.72;7400523;19;20022;-70
2022/06/22 07:12:27;;;;;;;6.20;3.40;;;;;;;18.93;51.99;100699.16;7397362;19;20014;-70
2022/06/22 07:14:58;;;;;;;2.95;1.63;;;;;;;19.04;51.77;100702.03;7397742;19;20010;-70
2022/06/22 07:17:27;;;;;;;3.38;1.83;;;;;;;19.14;51.16;100705.03;7397976;19;20006;-70
2022/06/22 07:19:59;;;;;;;5.55;2.05;;;;;;;19.23;51.17;100701.81;7400359;19;20438;-70
2022/06/22 07:22:32;;;;;;;5.75;1.98;;;;;;;19.32;50.92;100709.28;7399526;19;20011;-70
2022/06/22 07:25:12;;;;;;;7.20;2.20;;;;;;;19.43;50.79;100705.13;7397174;19;20485;-71
2022/06/22 07:27:47;;;;;;;5.63;2.30;;;;;;;19.51;50.36;100690.41;7400635;19;20066;-71
2022/06/22 07:30:21;;;;;;;5.55;1.38;;;;;;;19.60;50.15;100693.44;7400570;19;20359;-70
2022/06/22 07:32:56;;;;;;;3.80;1.58;;;;;;;19.66;49.56;100688.63;7402118;19;20032;-70
2022/06/22 07:35:31;;;;;;;4.88;1.23;;;;;;;19.79;49.14;100699.38;7399457;19;20444;-70
2022/06/22 07:38:06;;;;;;;2.55;1.73;;;;;;;19.89;48.71;100705.03;7398647;19;20028;-70
2022/06/22 07:41:18;;;;;;;5.88;2.70;;;;;;;19.98;48.20;100695.59;7399835;19;20082;-69
2022/06/22 07:43:28;;;;;;;6.30;2.17;;;;;;;20.04;48.25;100695.22;7397303;19;20025;-70
2022/06/22 07:45:57;;;;;;;2.95;1.63;;;;;;;20.10;47.43;100689.50;7396180;19;20014;-71
2022/06/22 07:48:27;;;;;;;3.47;1.45;;;;;;;20.15;47.18;100684.75;7398711;19;20010;-70
2022/06/22 07:50:58;;;;;;;4.22;1.30;;;;;;;20.20;46.14;100683.63;7395893;19;20018;-70
2022/06/22 07:53:32;;;;;;;3.00;1.40;;;;;;;20.26;46.06;100681.41;7396589;19;20023;-70
2022/06/22 07:56:12;;;;;;;2.28;1.20;;;;;;;20.31;46.08;100678.47;7399454;19;20035;-70
2022/06/22 07:58:47;;;;;;;4.30;1.55;;;;;;;20.36;45.81;100671.03;7396355;19;20019;-70
2022/06/22 08:01:21;;;;;;;5.50;1.50;;;;;;;20.47;45.69;100670.31;7399997;19;20014;-69
2022/06/22 08:03:51;;;;;;;;;;;;;;;20.55;45.06;100673.38;7399338;19;20339;-70
2022/06/22 08:06:22;;;;;;;3.65;1.40;;;;;;;20.63;45.96;100670.19;7396826;19;19925;-71
2022/06/22 08:08:58;;;;;;;5.07;2.42;;;;;;;20.70;45.38;100657.31;7397958;19;20335;-70
2022/06/22 08:11:36;;;;;;;3.30;1.42;;;;;;;20.79;44.39;100654.09;7398477;19;20505;-71
2022/06/22 08:14:11;;;;;;;3.50;1.20;;;;;;;20.87;44.64;100656.25;7397581;19;20022;-71
2022/06/22 08:16:45;;;;;;;3.97;1.35;;;;;;;20.90;42.94;100653.34;7397705;19;20035;-71
2022/06/22 08:19:14;;;;;;;5.60;1.30;;;;;;;20.93;43.51;100642.50;7399328;19;20475;-71
2022/06/22 08:21:44;;;;;;;6.35;1.40;;;;;;;21.01;43.52;100650.81;7399722;19;20028;-71
2022/06/22 08:24:14;;;;;;;4.57;1.08;;;;;;;21.04;43.40;100644.44;7396629;19;20432;-70
2022/06/22 08:26:45;;;;;;;4.78;1.42;;;;;;;21.09;43.14;100655.63;7397639;19;20035;-65
2022/06/22 08:29:18;;;;;;;3.80;1.15;;;;;;;21.13;43.37;100651.84;7396205;19;20019;-65
2022/06/22 08:31:50;;;;;;;4.57;1.60;;;;;;;21.17;42.96;100650.66;7398419;19;20503;-71
2022/06/22 08:34:24;;;;;;;5.93;1.40;;;;;;;21.22;42.57;100653.88;7395782;19;20018;-71
2022/06/22 08:36:58;;;;;;;4.40;1.20;;;;;;;21.28;42.62;100642.78;7398049;19;20035;-72
2022/06/22 08:39:32;;;;;;;6.50;1.40;;;;;;;21.32;41.89;100638.09;7397174;19;20342;-71
2022/06/22 08:42:15;;;;;;;3.78;1.00;;;;;;;21.40;40.76;100646.41;7396713;19;20026;-71
2022/06/22 08:44:59;;;;;;;2.15;1.17;;;;;;;21.46;40.32;100651.31;7395588;19;20082;-71
2022/06/22 08:47:45;;;;;;;3.10;1.33;;;;;;;21.51;39.83;100647.47;7397675;19;20026;-71
2022/06/22 08:50:33;;;;;;;2.67;1.00;;;;;;;21.56;38.92;100645.38;7395058;19;20018;-71
2022/06/22 08:53:18;;;;;;;3.58;1.20;;;;;;;21.62;39.85;100652.94;7397395;19;20019;-72
2022/06/22 08:56:07;;;;;;;4.55;1.25;;;;;;;21.67;39.72;100652.63;7395640;19;20493;-71
2022/06/22 08:59:00;;;;;;;2.42;1.13;;;;;;;21.75;39.53;100644.94;7397002;19;20014;-72
2022/06/22 09:01:39;;;;;;;4.53;1.63;;;;;;;21.81;39.68;100655.19;7397546;19;20031;-72
2022/06/22 09:04:35;;;;;;;15.18;1.98;;;;;;;21.87;38.75;100645.91;7393769;19;20038;-72
2022/06/22 09:07:32;;;;;;;13.32;1.88;;;;;;;21.90;38.58;100641.19;7397584;19;20075;-71
2022/06/22 09:10:29;;;;;;;19.80;2.83;;;;;;;21.94;38.35;100637.31;7398408;19;20011;-74
2022/06/22 09:13:31;;;;;;;3.45;1.55;;;;;;;21.99;38.29;100638.81;7396855;19;20022;-73
2022/06/22 09:16:16;;;;;;;13.45;2.10;;;;;;;22.02;38.57;100635.94;7394569;19;20014;-67
2022/06/22 09:19:07;;;;;;;3.65;1.65;;;;;;;22.06;38.44;100630.25;7394109;19;20447;-66
2022/06/22 09:21:53;;;;;;;2.00;1.00;;;;;;;22.15;37.94;100638.56;7394562;19;20032;-68
2022/06/22 09:24:23;;;;;;;4.75;1.33;;;;;;;22.20;38.37;100634.59;7394424;19;20481;-70
2022/06/22 09:27:12;;;;;;;3.97;1.15;;;;;;;22.28;37.52;100642.91;7395753;19;20025;-69
2022/06/22 09:30:10;;;;;;;5.05;1.48;;;;;;;22.36;37.48;100633.50;7394186;19;20450;-69
2022/06/22 09:33:03;;;;;;;4.13;1.33;;;;;;;22.44;37.68;100632.00;7393028;19;20015;-69
2022/06/22 09:36:13;;;;;;;1.95;1.00;;;;;;;22.50;37.43;100630.69;7393912;19;20052;-68
2022/06/22 09:39:19;;;;;;;12.27;1.50;;;;;;;22.53;37.30;100624.25;7394389;19;20082;-69
2022/06/22 09:42:03;;;;;;;13.25;2.03;;;;;;;22.55;37.20;100633.84;7395277;19;20018;-69
2022/06/22 09:44:46;;;;;;;;;;;;;;;22.59;37.39;100629.97;7394860;19;20022;-69
2022/06/22 09:47:37;;;;;;;1.80;1.17;;;;;;;22.66;36.99;100634.88;7394112;19;19927;-69
2022/06/22 09:50:41;;;;;;;1.38;0.93;;;;;;;22.75;36.70;100631.53;7395110;19;20090;-69
2022/06/22 09:53:38;;;;;;;4.20;1.40;;;;;;;22.83;36.89;100629.13;7394638;19;20078;-67
2022/06/22 09:56:33;;;;;;;3.33;1.30;;;;;;;22.90;36.25;100632.19;7394482;19;20035;-68
2022/06/22 09:59:33;;;;;;;4.28;1.33;;;;;;;22.98;36.98;100631.63;7395552;19;20031;-68
2022/06/22 10:02:15;;;;;;;4.72;1.20;;;;;;;23.05;36.01;100630.16;7395814;19;20022;-68
2022/06/22 10:05:16;;;;;;;3.00;1.08;;;;;;;23.14;35.27;100632.16;7392958;19;20488;-68
2022/06/22 10:08:00;;;;;;;4.70;1.30;;;;;;;23.23;34.94;100634.13;7395319;19;20022;-67
2022/06/22 10:10:43;;;;;;;4.75;1.13;;;;;;;23.33;34.44;100641.44;7395710;19;20014;-68
2022/06/22 10:13:53;;;;;;;2.15;1.15;;;;;;;23.40;33.91;100631.97;7394843;19;20022;-68
2022/06/22 10:16:39;;;;;;;1.35;0.82;;;;;;;23.45;34.06;100631.63;7406565;19;20011;-67
2022/06/22 10:19:34;;;;;;;1.52;1.05;;;;;;;23.52;33.10;100639.06;7409943;19;20037;-67
2022/06/22 10:22:32;;;;;;;1.15;0.73;;;;;;;23.58;32.97;100641.25;7408234;19;20037;-68
2022/06/22 10:25:43;;;;;;;4.60;1.27;;;;;;;23.68;33.01;100648.56;7409197;19;20041;-68
2022/06/22 10:28:32;;;;;;;3.08;1.15;;;;;;;23.75;33.44;100649.78;7406180;19;20066;-68
2022/06/22 10:31:11;;;;;;;3.33;0.82;;;;;;;23.77;32.02;100644.31;7408982;19;20018;-68
2022/06/22 10:34:09;;;;;;;2.92;0.93;;;;;;;23.80;32.99;100644.91;7406561;19;20014;-68
2022/06/22 10:37:10;;;;;;;4.15;1.40;;;;;;;23.86;32.88;100644.44;7404824;19;20020;-68
2022/06/22 10:39:56;;;;;;;2.30;1.00;;;;;;;23.94;33.06;100634.97;7405890;19;20018;-69
2022/06/22 10:45:35;;;;;;;4.28;1.10;;;;;;;24.15;33.27;100637.72;7408001;19;20021;-69
2022/06/22 10:48:38;;;;;;;4.72;1.60;;;;;;;24.26;32.30;100639.56;7408059;19;20024;-68
2022/06/22 10:51:18;;;;;;;3.45;1.10;;;;;;;24.36;32.57;100641.34;7405727;19;20011;-69
2022/06/22 10:54:06;;;;;;;2.40;1.10;;;;;;;24.48;32.29;100631.44;7409282;19;20054;-68
2022/06/22 10:56:58;;;;;;;2.70;1.50;;;;;;;24.60;31.31;100634.09;7405610;19;20022;-68
2022/06/22 11:00:12;;;;;;;1.30;1.00;;;;;;;24.74;31.12;100641.88;7407974;19;20018;-68
2022/06/22 11:03:25;;;;;;;3.28;1.25;;;;;;;24.88;31.25;100628.16;7404374;19;20015;-68
2022/06/22 11:06:42;;;;;;;6.77;1.23;;;;;;;25.03;30.79;100630.50;7404545;19;20485;-68
2022/06/22 11:09:35;;;;;;;3.58;1.10;;;;;;;25.15;31.13;100624.09;7407023;19;20015;-69
2022/06/22 11:12:36;;;;;;;1.42;0.80;;;;;;;25.26;30.68;100611.59;7405127;19;20015;-69
2022/06/22 11:15:43;;;;;;;3.25;1.33;;;;;;;25.36;29.52;100612.53;7402382;19;20049;-69
2022/06/22 11:18:40;;;;;;;3.03;1.10;;;;;;;25.48;30.15;100616.84;7401937;19;20187;-69
2022/06/22 11:21:18;;;;;;;2.55;1.13;;;;;;;25.59;29.59;100615.03;7405375;19;20047;-68
2022/06/22 11:24:17;;;;;;;2.00;0.93;;;;;;;25.66;30.09;100619.75;7400762;19;20406;-69
2022/06/22 11:32:57;;;;;;;2.00;0.90;;;;;;;25.99;29.75;100622.28;7399403;19;20020;-68
2022/06/22 11:35:53;;;;;;;2.33;1.30;;;;;;;26.10;28.22;100630.25;7398296;19;20041;-68
2022/06/22 11:38:48;;;;;;;2.85;0.98;;;;;;;26.16;29.33;100618.97;7397236;19;20493;-69
2022/06/22 11:41:32;;;;;;;22.63;2.85;;;;;;;26.24;29.13;100622.81;7398055;19;20082;-69
2022/06/22 11:44:18;;;;;;;3.38;1.25;;;;;;;26.35;29.15;100617.31;7396299;19;20014;-69
2022/06/22 11:46:51;;;;;;;3.70;1.10;;;;;;;26.49;29.06;100624.13;7398613;19;20010;-68
2022/06/22 11:49:38;;;;;;;3.45;1.17;;;;;;;26.66;28.17;100612.66;7397426;19;20014;-69
2022/06/22 11:52:34;;;;;;;2.92;1.35;;;;;;;26.92;27.60;100616.66;7397335;19;20017;-68
2022/06/22 11:55:23;;;;;;;2.85;1.23;;;;;;;27.18;27.46;100621.41;7399762;19;20036;-69
2022/06/22 11:58:22;;;;;;;1.70;0.80;;;;;;;27.39;26.52;100624.78;7396357;19;20018;-70
2022/06/22 12:01:04;;;;;;;1.73;1.15;;;;;;;27.56;27.03;100620.50;7397163;19;20358;-69
2022/06/22 12:04:01;;;;;;;3.30;0.90;;;;;;;27.78;26.51;100621.94;7397895;19;20019;-69
2022/06/22 12:07:01;;;;;;;1.35;0.60;;;;;;;28.03;26.28;100616.91;7398812;19;20015;-69
2022/06/22 12:09:49;;;;;;;2.45;1.15;;;;;;;28.23;26.19;100619.47;7398983;19;20373;-68
2022/06/22 12:12:46;;;;;;;1.95;0.80;;;;;;;28.38;25.97;100622.50;7396769;19;20018;-69
2022/06/22 12:15:36;;;;;;;2.03;1.00;;;;;;;28.52;25.75;100627.34;7397809;19;20021;-68
2022/06/22 12:18:18;;;;;;;2.83;0.98;;;;;;;28.66;25.48;100617.88;7395968;19;20010;-69
2022/06/22 12:21:02;;;;;;;2.47;1.15;;;;;;;28.82;25.28;100616.38;7398335;19;20015;-69
2022/06/22 12:23:43;;;;;;;6.20;1.52;;;;;;;28.98;25.19;100618.31;7396941;19;20052;-68
2022/06/22 12:26:39;;;;;;;4.40;0.93;;;;;;;29.13;25.07;100605.97;7397635;19;20388;-69
2022/06/22 12:29:25;;;;;;;2.33;1.08;;;;;;;29.29;24.38;100599.84;7396097;19;20019;-69
2022/06/22 12:31:58;;;;;;;1.75;0.90;;;;;;;29.45;24.27;100599.09;7397454;19;20014;-68
2022/06/22 12:34:34;;;;;;;2.83;0.95;;;;;;;29.52;24.24;100592.06;7396057;19;20015;-69